Time;durP1;ratioP1;P1;durP2;ratioP2;P2;SDS_P1;SDS_P2;PMS_P1;PMS_P2;Temp;Humidity;BMP_temperature;BMP_pressure;BME280_temperature;BME280_humidity;BME280_pressure;Samples;Min_cycle;Max_cycle;Signal;HPM_P1;HPM_P2
2022/09/16 00:00:43;;;;;;;7.00;4.43;;;14.10;99.90;;;;;;5066279;28;20342;-74
2022/09/16 00:03:10;;;;;;;7.40;4.00;;;14.10;99.90;;;;;;5067326;28;20036;-75
2022/09/16 00:05:44;;;;;;;4.88;4.00;;;14.10;99.90;;;;;;5067133;28;20035;-75
2022/09/16 00:08:10;;;;;;;5.82;4.00;;;14.10;99.90;;;;;;5072943;28;20033;-74
2022/09/16 00:10:36;;;;;;;5.38;4.30;;;14.10;99.90;;;;;;5063806;28;20471;-74
2022/09/16 00:13:03;;;;;;;4.57;3.75;;;14.20;99.90;;;;;;5068603;28;20041;-75
2022/09/16 00:15:28;;;;;;;4.35;3.95;;;14.20;99.90;;;;;;5066696;28;20039;-76
2022/09/16 00:17:54;;;;;;;4.40;3.92;;;14.10;99.90;;;;;;5071759;28;20032;-76
2022/09/16 00:20:19;;;;;;;5.45;3.92;;;14.10;99.90;;;;;;5072517;28;20024;-76
2022/09/16 00:22:47;;;;;;;4.97;4.25;;;14.20;99.90;;;;;;5064744;28;20032;-75
2022/09/16 00:25:13;;;;;;;9.55;4.32;;;14.10;99.90;;;;;;5062597;28;20040;-75
2022/09/16 00:27:38;;;;;;;6.35;4.03;;;14.10;99.90;;;;;;5072574;28;20033;-73
2022/09/16 00:30:04;;;;;;;4.60;4.10;;;14.10;99.90;;;;;;5071711;28;20043;-76
2022/09/16 00:32:30;;;;;;;4.82;4.05;;;14.10;99.90;;;;;;5072701;28;20466;-77
2022/09/16 00:34:55;;;;;;;6.65;4.13;;;14.10;99.90;;;;;;5059321;28;20043;-75
2022/09/16 00:37:21;;;;;;;6.57;3.28;;;14.00;99.90;;;;;;5062875;28;20486;-75
2022/09/16 00:39:48;;;;;;;4.90;4.05;;;14.00;99.90;;;;;;5062525;28;20029;-74
2022/09/16 00:42:14;;;;;;;4.90;3.80;;;14.00;99.90;;;;;;5063330;28;20059;-75
2022/09/16 00:45:02;;;;;;;6.18;3.90;;;13.90;99.90;;;;;;5064316;28;20086;-73
2022/09/16 00:47:44;;;;;;;4.68;4.10;;;13.90;99.90;;;;;;5086967;28;20115;-74
2022/09/16 00:50:19;;;;;;;6.20;3.97;;;13.80;99.90;;;;;;5071699;28;20151;-74
2022/09/16 00:52:49;;;;;;;6.35;4.88;;;13.80;99.90;;;;;;5084038;28;20035;-73
2022/09/16 00:55:20;;;;;;;11.25;4.63;;;13.80;99.90;;;;;;5085348;28;20023;-74
2022/09/16 00:57:46;;;;;;;5.22;4.30;;;13.80;99.90;;;;;;5077472;28;20028;-75
2022/09/16 01:00:13;;;;;;;4.82;3.85;;;13.80;99.90;;;;;;5090436;28;20035;-75
2022/09/16 01:02:43;;;;;;;5.32;4.15;;;13.80;99.90;;;;;;5090533;28;20038;-74
2022/09/16 01:05:16;;;;;;;4.80;4.38;;;13.80;99.90;;;;;;5086036;28;20016;-76
2022/09/16 01:07:47;;;;;;;7.03;4.63;;;13.80;99.90;;;;;;5086949;28;20393;-73
2022/09/16 01:10:24;;;;;;;8.13;4.57;;;13.80;99.90;;;;;;5086840;28;20040;-77
2022/09/16 01:12:56;;;;;;;7.97;4.45;;;13.80;99.90;;;;;;5088675;28;20032;-76
2022/09/16 01:15:30;;;;;;;6.78;4.43;;;13.80;99.90;;;;;;5070553;28;20039;-77
2022/09/16 01:18:13;;;;;;;4.82;4.25;;;13.80;99.90;;;;;;5081115;28;20050;-74
2022/09/16 01:21:05;;;;;;;7.50;4.25;;;13.80;99.90;;;;;;5083097;28;20043;-74
2022/09/16 01:24:02;;;;;;;6.82;4.65;;;13.80;99.90;;;;;;5081415;28;20039;-76
2022/09/16 01:26:28;;;;;;;6.80;4.65;;;13.80;99.90;;;;;;5086251;28;20032;-76
2022/09/16 01:29:21;;;;;;;7.78;4.55;;;13.80;99.90;;;;;;5079409;28;20028;-76
2022/09/16 01:31:56;;;;;;;4.47;4.00;;;13.80;99.90;;;;;;5088056;28;20028;-76
2022/09/16 01:34:34;;;;;;;9.35;4.18;;;13.90;99.90;;;;;;5077598;28;20024;-76
2022/09/16 01:37:07;;;;;;;6.07;4.43;;;13.90;99.90;;;;;;5066611;28;20584;-76
2022/09/16 01:39:32;;;;;;;5.43;4.43;;;13.90;99.90;;;;;;5082807;28;20051;-76
2022/09/16 01:42:24;;;;;;;6.88;4.65;;;13.90;99.90;;;;;;5087412;28;20032;-76
2022/09/16 01:45:06;;;;;;;8.65;5.40;;;13.80;99.90;;;;;;5075865;28;20127;-74
2022/09/16 01:48:06;;;;;;;5.82;4.78;;;13.80;99.90;;;;;;5068207;28;20722;-74
2022/09/16 01:50:40;;;;;;;5.10;4.63;;;13.70;99.90;;;;;;5068664;28;20134;-76
2022/09/16 01:53:19;;;;;;;5.10;4.47;;;13.70;99.90;;;;;;5066318;28;20064;-74
2022/09/16 01:55:53;;;;;;;9.93;5.35;;;13.60;99.90;;;;;;5063133;28;20039;-75
2022/09/16 01:58:43;;;;;;;6.55;4.63;;;13.50;99.90;;;;;;5062815;28;20678;-75
2022/09/16 02:01:14;;;;;;;9.73;4.95;;;13.50;99.90;;;;;;5058065;28;20055;-76
2022/09/16 02:03:48;;;;;;;8.93;4.70;;;13.50;99.90;;;;;;5066202;28;20089;-74
2022/09/16 02:06:21;;;;;;;8.32;5.43;;;13.50;99.90;;;;;;5077046;28;20043;-76
2022/09/16 02:08:57;;;;;;;5.72;4.35;;;13.50;99.90;;;;;;5069650;28;20012;-76
2022/09/16 02:11:23;;;;;;;7.07;4.78;;;13.40;99.90;;;;;;5068343;28;20067;-76
2022/09/16 02:13:57;;;;;;;9.77;4.68;;;13.40;99.90;;;;;;5073176;28;20469;-75
2022/09/16 02:16:35;;;;;;;7.05;4.70;;;13.40;99.90;;;;;;5074841;28;20029;-75
2022/09/16 02:19:09;;;;;;;4.65;4.15;;;13.40;99.90;;;;;;5072237;28;20199;-75
2022/09/16 02:21:38;;;;;;;10.40;4.57;;;13.30;99.90;;;;;;5074794;28;20036;-76
2022/09/16 02:24:11;;;;;;;7.30;4.30;;;13.40;99.90;;;;;;5073184;28;20025;-76
2022/09/16 02:26:41;;;;;;;4.85;3.70;;;13.30;99.90;;;;;;5074345;28;20025;-76
2022/09/16 02:29:13;;;;;;;5.82;3.75;;;13.30;99.90;;;;;;5067386;28;20089;-75
2022/09/16 02:31:43;;;;;;;4.38;3.45;;;13.40;99.90;;;;;;5065597;28;20041;-74
2022/09/16 02:34:14;;;;;;;7.82;3.85;;;13.30;99.90;;;;;;5071460;28;20139;-76
2022/09/16 02:36:43;;;;;;;10.27;3.45;;;13.30;99.90;;;;;;5070884;28;20028;-73
2022/09/16 02:39:13;;;;;;;7.45;3.85;;;13.30;99.90;;;;;;5072642;28;20025;-77
2022/09/16 02:41:40;;;;;;;8.05;3.63;;;13.40;99.90;;;;;;5066067;28;20032;-76
2022/09/16 02:44:07;;;;;;;5.43;3.30;;;13.60;99.90;;;;;;5073737;28;20029;-76
2022/09/16 02:46:56;;;;;;;6.90;3.67;;;13.30;99.90;;;;;;5083050;28;20052;-76
2022/09/16 02:49:25;;;;;;;6.07;3.72;;;13.20;99.90;;;;;;5093230;28;20056;-74
2022/09/16 02:52:09;;;;;;;3.67;3.08;;;13.20;99.90;;;;;;5108206;28;20408;-75
2022/09/16 02:54:59;;;;;;;6.82;3.40;;;13.20;99.90;;;;;;5102262;28;20031;-74
2022/09/16 02:57:26;;;;;;;6.53;3.30;;;13.20;99.90;;;;;;5095213;28;20032;-75
2022/09/16 02:59:52;;;;;;;4.60;3.00;;;13.30;99.90;;;;;;5093187;28;20089;-76
2022/09/16 03:02:17;;;;;;;5.18;3.40;;;13.20;99.90;;;;;;5103787;28;20081;-75
2022/09/16 03:04:44;;;;;;;4.63;2.95;;;13.20;99.90;;;;;;5087325;28;20033;-73
2022/09/16 03:07:16;;;;;;;4.85;3.05;;;;;;;;;;5091903;28;20385;-77
2022/09/16 03:09:46;;;;;;;5.00;3.22;;;;;;;;;;5096509;28;20048;-73
2022/09/16 03:12:13;;;;;;;;;;;;;;;;;;5094697;28;20024;-77
2022/09/16 03:14:50;;;;;;;5.35;3.15;;;;;;;;;;5093684;28;19907;-77
2022/09/16 03:17:25;;;;;;;3.83;2.85;;;;;;;;;;5093839;28;20016;-77
2022/09/16 03:20:11;;;;;;;2.83;2.58;;;;;;;;;;5093453;28;20078;-78
2022/09/16 03:22:47;;;;;;;4.15;2.47;;;;;;;;;;5093881;28;20376;-77
2022/09/16 03:25:15;;;;;;;8.13;2.90;;;13.00;99.90;;;;;;5087287;28;20103;-76
2022/09/16 03:27:52;;;;;;;5.20;3.13;;;;;;;;;;5093981;28;20431;-74
2022/09/16 03:30:19;;;;;;;4.82;2.80;;;;;;;;;;5086272;28;20036;-75
2022/09/16 03:32:46;;;;;;;5.90;2.95;;;;;;;;;;5080423;28;20036;-74
2022/09/16 03:35:42;;;;;;;9.00;3.33;;;;;;;;;;5085006;28;20040;-77
2022/09/16 03:38:10;;;;;;;5.65;2.40;;;;;;;;;;5053119;28;20028;-76
2022/09/16 03:40:36;;;;;;;4.38;2.42;;;13.20;99.90;;;;;;5085692;28;20652;-76
2022/09/16 03:43:10;;;;;;;4.93;2.30;;;;;;;;;;5084083;28;20028;-77
2022/09/16 03:45:36;;;;;;;7.15;2.60;;;13.20;99.90;;;;;;5093376;28;20500;-76
2022/09/16 03:48:01;;;;;;;5.78;1.70;;;13.30;99.90;;;;;;5093429;28;20092;-76
2022/09/16 03:50:30;;;;;;;4.95;2.08;;;13.30;99.90;;;;;;5085958;28;20799;-75
2022/09/16 03:52:55;;;;;;;4.40;2.08;;;13.30;99.90;;;;;;5100441;28;20111;-77
2022/09/16 03:55:21;;;;;;;3.55;2.38;;;13.30;99.90;;;;;;5094452;28;20107;-77
2022/09/16 03:57:46;;;;;;;5.68;2.42;;;13.20;99.90;;;;;;5078792;28;20032;-74
2022/09/16 04:00:14;;;;;;;4.25;2.30;;;13.20;99.90;;;;;;5065887;28;20036;-75
2022/09/16 04:02:40;;;;;;;3.70;2.35;;;13.30;99.90;;;;;;5073583;28;20104;-73
2022/09/16 04:05:07;;;;;;;4.78;2.08;;;13.30;99.90;;;;;;5082166;28;20111;-76
2022/09/16 04:07:33;;;;;;;5.15;2.67;;;13.30;99.90;;;;;;5098631;28;20101;-76
2022/09/16 04:09:59;;;;;;;6.25;2.38;;;13.30;99.90;;;;;;5105258;28;20467;-76
2022/09/16 04:12:25;;;;;;;3.88;2.47;;;13.40;99.90;;;;;;5094321;28;20032;-78
2022/09/16 04:14:51;;;;;;;4.45;2.30;;;13.40;99.90;;;;;;5092902;28;20028;-75
2022/09/16 04:17:19;;;;;;;6.30;2.47;;;13.40;99.90;;;;;;5089292;28;20188;-75
2022/09/16 04:19:45;;;;;;;4.70;2.35;;;13.40;99.90;;;;;;5091894;28;20035;-74
2022/09/16 04:22:10;;;;;;;6.90;2.35;;;13.40;99.90;;;;;;5092195;28;20069;-76
2022/09/16 04:24:36;;;;;;;3.50;2.30;;;13.40;99.90;;;;;;5091182;28;20024;-76
2022/09/16 04:27:02;;;;;;;4.55;2.10;;;13.40;99.90;;;;;;5089009;28;20133;-76
2022/09/16 04:29:27;;;;;;;5.57;2.55;;;13.40;99.90;;;;;;5096944;28;20042;-75
2022/09/16 04:31:54;;;;;;;5.57;2.78;;;13.40;99.90;;;;;;5088066;28;20032;-75
2022/09/16 04:34:19;;;;;;;4.85;2.47;;;13.40;99.90;;;;;;5085436;28;20024;-76
2022/09/16 04:36:48;;;;;;;5.10;2.15;;;13.40;99.90;;;;;;5091390;28;20047;-74
2022/09/16 04:39:13;;;;;;;3.80;2.17;;;13.40;99.90;;;;;;5084228;28;20103;-77
2022/09/16 04:41:39;;;;;;;4.72;2.38;;;13.40;99.90;;;;;;5086675;28;20111;-76
2022/09/16 04:44:04;;;;;;;4.78;2.40;;;13.40;99.90;;;;;;5100984;28;20102;-76
2022/09/16 04:46:31;;;;;;;6.57;2.33;;;13.40;99.90;;;;;;5080801;28;20131;-76
2022/09/16 04:48:58;;;;;;;5.40;2.80;;;13.40;99.90;;;;;;5069352;28;20032;-76
2022/09/16 04:51:27;;;;;;;3.72;2.15;;;13.40;99.90;;;;;;5077129;28;20043;-76
2022/09/16 04:53:57;;;;;;;4.40;2.08;;;13.40;99.90;;;;;;5081948;28;20024;-76
2022/09/16 04:56:26;;;;;;;3.43;2.43;;;13.40;99.90;;;;;;5065508;28;20087;-76
2022/09/16 04:58:53;;;;;;;6.60;2.65;;;13.30;99.90;;;;;;5077694;28;20370;-76
2022/09/16 05:01:25;;;;;;;11.15;3.20;;;13.30;99.90;;;;;;5074935;28;20072;-79
2022/09/16 05:03:57;;;;;;;7.93;2.85;;;13.30;99.90;;;;;;5067713;28;20393;-76
2022/09/16 05:06:25;;;;;;;5.97;2.90;;;13.30;99.90;;;;;;5063260;28;20389;-76
2022/09/16 05:08:52;;;;;;;4.22;2.50;;;13.30;99.90;;;;;;5072079;28;20024;-79
2022/09/16 05:11:20;;;;;;;6.53;2.63;;;13.30;99.90;;;;;;5081580;28;20040;-75
2022/09/16 05:13:46;;;;;;;4.57;2.80;;;13.30;99.90;;;;;;5071025;28;20086;-76
2022/09/16 05:16:14;;;;;;;8.50;3.40;;;13.20;99.90;;;;;;5071616;28;20032;-77
2022/09/16 05:18:42;;;;;;;6.75;3.40;;;13.20;99.90;;;;;;5069333;28;20028;-77
2022/09/16 05:21:10;;;;;;;12.40;3.22;;;13.30;99.90;;;;;;5065867;28;20039;-76
2022/09/16 05:23:39;;;;;;;4.35;3.13;;;13.20;99.90;;;;;;5066670;28;20028;-78
2022/09/16 05:26:13;;;;;;;4.65;3.13;;;13.20;99.90;;;;;;5059659;28;20029;-76
2022/09/16 05:28:39;;;;;;;6.35;3.45;;;13.10;99.90;;;;;;5066386;28;20386;-77
2022/09/16 05:31:14;;;;;;;8.98;3.92;;;13.00;99.90;;;;;;5066340;28;20178;-77
2022/09/16 05:33:42;;;;;;;6.53;3.40;;;12.90;99.90;;;;;;5064648;28;20021;-77
2022/09/16 05:36:17;;;;;;;11.43;4.80;;;12.90;99.90;;;;;;5063119;28;20082;-78
2022/09/16 05:38:43;;;;;;;5.82;3.85;;;12.50;99.90;;;;;;5072324;28;20025;-77
2022/09/16 05:41:09;;;;;;;6.97;4.13;;;12.70;99.90;;;;;;5074386;28;20043;-77
2022/09/16 05:43:35;;;;;;;4.85;3.80;;;12.60;99.90;;;;;;5072951;28;20461;-77
2022/09/16 05:46:02;;;;;;;8.43;3.70;;;12.60;99.90;;;;;;5090185;28;20040;-77
2022/09/16 05:48:27;;;;;;;7.82;4.40;;;12.50;99.90;;;;;;5069303;28;20040;-75
2022/09/16 05:50:58;;;;;;;11.45;4.30;;;12.50;99.90;;;;;;5081878;28;20047;-77
2022/09/16 05:53:25;;;;;;;6.75;4.05;;;12.50;99.90;;;;;;5063908;28;20041;-76
2022/09/16 05:56:14;;;;;;;9.85;4.22;;;12.40;99.90;;;;;;5075678;28;20059;-82
2022/09/16 05:58:40;;;;;;;8.82;4.30;;;12.40;99.90;;;;;;5075138;28;20041;-76
2022/09/16 06:01:11;;;;;;;5.57;4.28;;;12.40;99.90;;;;;;5073506;28;20214;-77
2022/09/16 06:03:39;;;;;;;8.18;4.20;;;12.30;99.90;;;;;;5088741;28;20033;-79
2022/09/16 06:06:12;;;;;;;10.18;4.07;;;12.30;99.90;;;;;;5064128;28;20052;-78
2022/09/16 06:08:38;;;;;;;9.65;4.15;;;12.40;99.90;;;;;;5083234;28;20032;-78
2022/09/16 06:11:06;;;;;;;8.63;4.20;;;12.40;99.90;;;;;;5077425;28;20040;-78
2022/09/16 06:13:32;;;;;;;5.07;4.07;;;12.30;99.90;;;;;;5075376;28;20029;-77
2022/09/16 06:15:58;;;;;;;6.25;4.07;;;12.30;99.90;;;;;;5083844;28;20028;-77
2022/09/16 06:18:26;;;;;;;6.65;3.65;;;12.20;99.90;;;;;;5084526;28;20036;-77
2022/09/16 06:20:52;;;;;;;8.05;4.03;;;12.20;99.90;;;;;;5075630;28;20032;-77
2022/09/16 06:23:19;;;;;;;8.73;5.05;;;12.10;99.90;;;;;;5090101;28;20021;-78
2022/09/16 06:25:44;;;;;;;7.35;5.00;;;12.10;99.90;;;;;;5094686;28;20036;-78
2022/09/16 06:28:10;;;;;;;8.10;4.53;;;12.10;99.90;;;;;;5057375;28;20078;-77
2022/09/16 06:30:37;;;;;;;8.88;4.22;;;12.10;99.90;;;;;;5054229;28;20045;-78
2022/09/16 06:33:03;;;;;;;10.77;4.28;;;12.10;99.90;;;;;;5058910;28;20378;-78
2022/09/16 06:35:29;;;;;;;8.38;3.88;;;12.10;99.90;;;;;;5043260;28;20067;-70
2022/09/16 06:37:55;;;;;;;6.85;4.00;;;12.10;99.90;;;;;;5048099;28;20028;-71
2022/09/16 06:40:20;;;;;;;8.68;4.15;;;12.10;99.90;;;;;;5056533;28;20086;-72
2022/09/16 06:42:46;;;;;;;11.32;4.05;;;12.10;99.90;;;;;;5085667;28;20064;-72
2022/09/16 06:45:11;;;;;;;7.05;4.30;;;12.10;99.90;;;;;;5092573;28;20044;-71
2022/09/16 06:47:40;;;;;;;7.85;3.90;;;12.20;99.90;;;;;;5077558;28;20024;-73
2022/09/16 06:50:06;;;;;;;12.85;4.05;;;12.10;99.90;;;;;;5082231;28;20035;-72
2022/09/16 06:52:31;;;;;;;8.27;3.65;;;12.20;99.90;;;;;;5073179;28;20047;-72
2022/09/16 06:55:00;;;;;;;9.02;4.32;;;12.30;99.90;;;;;;5074623;28;20020;-74
2022/09/16 06:57:25;;;;;;;6.80;4.40;;;12.30;99.90;;;;;;5069467;28;20032;-74
2022/09/16 06:59:51;;;;;;;8.93;3.95;;;12.30;99.90;;;;;;5068612;28;20028;-72
2022/09/16 07:02:18;;;;;;;8.70;3.55;;;12.20;99.90;;;;;;5072118;28;20543;-76
2022/09/16 07:04:44;;;;;;;8.38;2.83;;;12.30;99.90;;;;;;5068657;28;20048;-75
2022/09/16 07:07:15;;;;;;;7.40;3.40;;;12.20;99.90;;;;;;5070642;28;20040;-76
2022/09/16 07:09:40;;;;;;;13.55;4.00;;;12.10;99.90;;;;;;5066766;28;20028;-75
2022/09/16 07:12:07;;;;;;;8.98;3.53;;;12.10;99.90;;;;;;5071063;28;20093;-75
2022/09/16 07:14:33;;;;;;;9.35;4.22;;;12.00;99.90;;;;;;5069766;28;20025;-74
2022/09/16 07:17:02;;;;;;;9.40;4.78;;;12.00;99.90;;;;;;5047943;28;20438;-73
2022/09/16 07:19:27;;;;;;;9.20;4.28;;;12.00;99.90;;;;;;5072952;28;20455;-73
2022/09/16 07:21:53;;;;;;;13.20;5.35;;;11.90;99.90;;;;;;5065491;28;20360;-74
2022/09/16 07:24:19;;;;;;;8.60;4.85;;;11.90;99.90;;;;;;5072673;28;20458;-72
2022/09/16 07:26:45;;;;;;;9.80;5.13;;;11.90;99.90;;;;;;5072713;28;20029;-73
2022/09/16 07:29:14;;;;;;;6.18;4.85;;;11.80;99.90;;;;;;5071080;28;20020;-75
2022/09/16 07:31:41;;;;;;;12.93;6.85;;;11.70;99.90;;;;;;5072407;28;20091;-72
2022/09/16 07:34:09;;;;;;;13.82;6.15;;;11.60;99.90;;;;;;5070510;28;20028;-73
2022/09/16 07:36:39;;;;;;;12.70;6.43;;;11.60;99.90;;;;;;5068812;28;20036;-73
2022/09/16 07:39:06;;;;;;;11.60;5.70;;;11.50;99.90;;;;;;5079615;28;20032;-73
2022/09/16 07:41:38;;;;;;;13.40;6.15;;;11.60;99.90;;;;;;5069997;28;20064;-73
2022/09/16 07:44:08;;;;;;;14.35;5.40;;;11.60;99.90;;;;;;5053507;28;20333;-74
2022/09/16 07:46:35;;;;;;;6.65;5.60;;;11.60;99.90;;;;;;5071599;28;20144;-73
2022/09/16 07:49:02;;;;;;;9.38;6.20;;;11.70;99.90;;;;;;5072257;28;20025;-73
2022/09/16 07:51:29;;;;;;;12.73;6.03;;;11.70;99.90;;;;;;5071309;28;20110;-72
2022/09/16 07:54:01;;;;;;;15.95;7.00;;;11.70;99.90;;;;;;5073646;28;20029;-76
2022/09/16 07:56:28;;;;;;;13.52;7.10;;;11.70;99.90;;;;;;5076774;28;20107;-73
2022/09/16 07:58:55;;;;;;;9.82;6.60;;;11.70;99.90;;;;;;5076177;28;20186;-72
2022/09/16 08:01:21;;;;;;;12.48;7.47;;;11.70;99.90;;;;;;5071875;28;20044;-71
2022/09/16 08:03:47;;;;;;;9.68;7.30;;;11.70;99.90;;;;;;5072137;28;20087;-73
2022/09/16 08:06:15;;;;;;;11.23;6.75;;;11.70;99.90;;;;;;5071747;28;20105;-72
2022/09/16 08:08:42;;;;;;;13.40;7.50;;;11.70;99.90;;;;;;5071086;28;20032;-72
2022/09/16 08:11:08;;;;;;;13.55;7.28;;;11.70;99.90;;;;;;5071052;28;20116;-75
2022/09/16 08:13:35;;;;;;;14.55;6.97;;;11.70;99.90;;;;;;5073239;28;20028;-77
2022/09/16 08:16:03;;;;;;;9.45;6.97;;;11.80;99.90;;;;;;5067517;28;20050;-77
2022/09/16 08:18:29;;;;;;;15.85;6.75;;;11.90;99.90;;;;;;5073555;28;20028;-78
2022/09/16 08:20:55;;;;;;;11.85;6.72;;;12.00;99.90;;;;;;5072309;28;20038;-75
2022/09/16 08:23:22;;;;;;;10.48;6.65;;;12.10;99.90;;;;;;5076562;28;20032;-75
2022/09/16 08:25:57;;;;;;;12.80;7.05;;;;;;;;;;5070849;28;20139;-77
2022/09/16 08:28:24;;;;;;;13.85;7.38;;;;;;;;;;5072364;28;20355;-76
2022/09/16 08:30:50;;;;;;;10.52;6.45;;;;;;;;;;5064030;28;20052;-78
2022/09/16 08:33:21;;;;;;;8.48;6.20;;;;;;;;;;5073085;28;20024;-78
2022/09/16 08:35:56;;;;;;;10.75;6.28;;;;;;;;;;5072330;28;20028;-78
2022/09/16 08:38:22;;;;;;;9.93;6.03;;;;;;;;;;5071826;28;20052;-77
2022/09/16 08:40:48;;;;;;;9.52;6.47;;;;;;;;;;5070231;28;20028;-75
2022/09/16 08:43:18;;;;;;;12.00;6.93;;;;;;;;;;5070689;28;20032;-77
2022/09/16 08:46:08;;;;;;;12.85;7.53;;;;;;;;;;5064409;28;20048;-77
2022/09/16 08:48:57;;;;;;;8.52;6.68;;;;;;;;;;5066497;28;20094;-78
2022/09/16 08:51:24;;;;;;;11.95;7.25;;;;;;;;;;5064755;28;20144;-77
2022/09/16 08:54:09;;;;;;;10.73;7.75;;;;;;;;;;5071893;28;20024;-78
2022/09/16 08:56:36;;;;;;;10.98;7.13;;;;;;;;;;5071430;28;20029;-78
2022/09/16 08:59:09;;;;;;;8.00;6.35;;;;;;;;;;5062991;28;20029;-77
2022/09/16 09:01:38;;;;;;;11.70;7.07;;;;;;;;;;5071496;28;20115;-78
2022/09/16 09:04:04;;;;;;;13.20;6.47;;;;;;;;;;5070639;28;20120;-77
2022/09/16 09:06:43;;;;;;;12.05;6.32;;;;;;;;;;5071659;28;20021;-77
2022/09/16 09:09:25;;;;;;;10.02;5.22;;;;;;;;;;5070244;28;20500;-77
2022/09/16 09:12:17;;;;;;;10.40;5.78;;;;;;;;;;5063382;28;20097;-78
2022/09/16 09:14:49;;;;;;;12.00;5.93;;;;;;;;;;5066366;28;20119;-77
2022/09/16 09:17:22;;;;;;;10.27;4.70;;;;;;;;;;5066484;28;20055;-76
2022/09/16 09:20:00;;;;;;;9.15;4.43;;;;;;;;;;5071522;28;20060;-77
2022/09/16 09:22:33;;;;;;;8.02;4.70;;;;;;;;;;5065589;28;20362;-78
2022/09/16 09:25:20;;;;;;;8.10;4.32;;;;;;;;;;5070730;28;20099;-77
2022/09/16 09:28:01;;;;;;;8.88;3.97;;;;;;;;;;5065006;28;20445;-77
2022/09/16 09:30:31;;;;;;;6.95;3.70;;;;;;;;;;5059561;28;20032;-76
2022/09/16 09:33:05;;;;;;;7.22;3.50;;;;;;;;;;5049771;28;20024;-76
2022/09/16 09:35:55;;;;;;;6.45;3.58;;;;;;;;;;5071774;28;20029;-78
2022/09/16 09:38:30;;;;;;;6.90;3.60;;;;;;;;;;5053882;28;20386;-79
2022/09/16 09:41:20;;;;;;;8.10;4.53;;;;;;;;;;5068305;28;20255;-75
2022/09/16 09:43:52;;;;;;;6.90;4.85;;;;;;;;;;5058550;28;20427;-80
2022/09/16 09:46:41;;;;;;;8.82;4.30;;;;;;;;;;5070581;28;20044;-78
2022/09/16 09:49:13;;;;;;;5.73;3.53;;;;;;;;;;5069079;28;20065;-81
2022/09/16 09:51:48;;;;;;;7.00;3.33;;;;;;;;;;5075306;28;20041;-78
2022/09/16 09:54:29;;;;;;;4.80;3.15;;;;;;;;;;5082833;28;20636;-81
2022/09/16 09:57:04;;;;;;;5.05;3.22;;;;;;;;;;5085352;28;20029;-75
2022/09/16 09:59:32;;;;;;;9.57;3.88;;;;;;;;;;5084757;28;20099;-80
2022/09/16 10:02:02;;;;;;;4.28;2.92;;;;;;;;;;5076971;28;20043;-74
2022/09/16 10:04:39;;;;;;;9.80;4.18;;;;;;;;;;5073401;28;20073;-78
2022/09/16 10:07:09;;;;;;;7.15;3.92;;;;;;;;;;5075758;28;20057;-78
2022/09/16 10:09:39;;;;;;;9.10;4.18;;;;;;;;;;5074936;28;20105;-77
2022/09/16 10:12:08;;;;;;;9.10;3.67;;;;;;;;;;5069883;28;20040;-79
2022/09/16 10:14:38;;;;;;;6.22;3.60;;;;;;;;;;5072277;28;20110;-80
2022/09/16 10:17:07;;;;;;;;;;;;;;;;;;5066873;28;20021;-81
2022/09/16 10:19:42;;;;;;;7.13;3.70;;;;;;;;;;5070324;28;20357;-81
2022/09/16 10:22:13;;;;;;;5.80;3.28;;;;;;;;;;5067377;28;20025;-79
2022/09/16 10:24:42;;;;;;;6.90;4.00;;;;;;;;;;5069851;28;20032;-77
2022/09/16 10:27:22;;;;;;;5.18;3.78;;;;;;;;;;5073262;28;20048;-81
2022/09/16 10:29:51;;;;;;;7.20;3.50;;;;;;;;;;5073705;28;20025;-80
2022/09/16 10:32:21;;;;;;;3.47;2.83;;;;;;;;;;5067381;28;20028;-76
2022/09/16 10:34:50;;;;;;;7.55;3.88;;;;;;;;;;5067835;28;20032;-77
2022/09/16 10:37:20;;;;;;;15.20;7.10;;;;;;;;;;5067026;28;20143;-78
2022/09/16 10:39:54;;;;;;;16.83;7.10;;;;;;;;;;5067322;28;20028;-78
2022/09/16 10:42:24;;;;;;;7.60;4.05;;;;;;;;;;5072618;28;20485;-80
2022/09/16 10:44:54;;;;;;;5.90;4.25;;;;;;;;;;5061507;28;20049;-79
2022/09/16 10:47:30;;;;;;;4.00;3.13;;;;;;;;;;5072446;28;20469;-79
2022/09/16 10:50:04;;;;;;;7.07;3.28;;;;;;;;;;5064566;28;20070;-73
2022/09/16 10:52:32;;;;;;;8.10;3.75;;;;;;;;;;5064892;28;20116;-78
2022/09/16 10:55:13;;;;;;;5.22;3.28;;;;;;;;;;5071129;28;20028;-76
2022/09/16 10:57:41;;;;;;;5.38;2.90;;;;;;;;;;5061667;28;20097;-77
2022/09/16 11:00:12;;;;;;;5.25;2.78;;;;;;;;;;5071945;28;20469;-78
2022/09/16 11:03:07;;;;;;;6.30;3.38;;;;;;;;;;5073095;28;20063;-76
2022/09/16 11:05:56;;;;;;;4.90;2.72;;;;;;;;;;5071240;28;20031;-75
2022/09/16 11:08:38;;;;;;;4.53;2.85;;;;;;;;;;5068197;28;20036;-76
2022/09/16 11:11:15;;;;;;;5.35;3.17;;;;;;;;;;5075911;28;20021;-75
2022/09/16 11:13:48;;;;;;;4.82;2.80;;;;;;;;;;5069654;28;20119;-76
2022/09/16 11:16:24;;;;;;;5.47;3.05;;;;;;;;;;5070626;28;20027;-77
2022/09/16 11:19:03;;;;;;;5.50;3.65;;;;;;;;;;5073428;28;20077;-78
2022/09/16 11:21:49;;;;;;;4.83;3.47;;;;;;;;;;5072789;28;20028;-79
2022/09/16 11:24:26;;;;;;;6.28;2.70;;;;;;;;;;5066313;28;20028;-76
2022/09/16 11:27:02;;;;;;;7.65;2.88;;;;;;;;;;5073461;28;20082;-77
2022/09/16 11:29:50;;;;;;;6.90;2.95;;;;;;;;;;5072587;28;20036;-76
2022/09/16 11:32:20;;;;;;;6.93;3.08;;;;;;;;;;5066804;28;20033;-76
2022/09/16 11:34:47;;;;;;;6.40;2.70;;;;;;;;;;5070052;28;20439;-76
2022/09/16 11:37:28;;;;;;;7.07;2.53;;;;;;;;;;5071027;28;20021;-76
2022/09/16 11:40:01;;;;;;;7.68;2.30;;;;;;;;;;5073172;28;20028;-76
2022/09/16 11:42:34;;;;;;;7.15;2.50;;;;;;;;;;5064655;28;20033;-76
2022/09/16 11:45:01;;;;;;;5.40;2.83;;;;;;;;;;5070560;28;20049;-76
2022/09/16 11:47:40;;;;;;;7.97;2.47;;;;;;;;;;5072359;28;20028;-77
2022/09/16 11:50:27;;;;;;;5.22;2.35;;;;;;;;;;5068330;28;20538;-76
2022/09/16 11:53:17;;;;;;;4.85;1.77;;;;;;;;;;5066607;28;20490;-76
2022/09/16 11:55:51;;;;;;;6.72;2.30;;;14.90;99.90;;;;;;5040634;28;20492;-78
2022/09/16 11:58:34;;;;;;;8.85;2.83;;;15.00;99.90;;;;;;5073669;28;20020;-77
2022/09/16 12:01:14;;;;;;;6.63;1.77;;;15.30;99.90;;;;;;5074320;28;20070;-77
2022/09/16 12:03:52;;;;;;;9.50;2.35;;;15.50;99.90;;;;;;5070389;28;20059;-76
2022/09/16 12:06:23;;;;;;;2.95;1.30;;;15.70;99.90;;;;;;5067230;28;20036;-77
2022/09/16 12:09:12;;;;;;;3.95;1.60;;;15.90;99.90;;;;;;5073792;28;20112;-76
2022/09/16 12:12:24;;;;;;;4.30;1.65;;;16.30;99.90;;;;;;5072895;28;20071;-77
2022/09/16 12:15:05;;;;;;;4.05;1.95;;;16.60;99.90;;;;;;5063796;28;20493;-77
2022/09/16 12:17:38;;;;;;;5.50;1.40;;;16.80;99.90;;;;;;5061782;28;20028;-76
2022/09/16 12:20:15;;;;;;;3.28;1.67;;;17.00;99.90;;;;;;5072014;28;20036;-78
2022/09/16 12:22:49;;;;;;;4.40;2.15;;;17.10;99.90;;;;;;5069293;28;20487;-78
2022/09/16 12:25:25;;;;;;;3.45;1.52;;;17.20;99.90;;;;;;5069513;28;20028;-78
2022/09/16 12:27:55;;;;;;;8.32;1.33;;;17.00;99.90;;;;;;5072155;28;20162;-78
2022/09/16 12:30:26;;;;;;;3.45;1.40;;;16.80;99.90;;;;;;5071371;28;20474;-74
2022/09/16 12:32:59;;;;;;;2.72;1.77;;;16.60;99.90;;;;;;5065815;28;20595;-78
2022/09/16 12:35:33;;;;;;;4.32;1.70;;;16.50;99.90;;;;;;5073559;28;20500;-78
2022/09/16 12:37:59;;;;;;;2.08;1.27;;;16.50;99.90;;;;;;5068403;28;20036;-69
2022/09/16 12:40:39;;;;;;;2.20;1.08;;;16.50;99.90;;;;;;5070217;28;20040;-73
2022/09/16 12:43:41;;;;;;;4.90;1.63;;;16.50;99.90;;;;;;5064871;28;20458;-73
2022/09/16 12:46:42;;;;;;;6.25;2.00;;;16.50;99.90;;;;;;5078153;28;20106;-71
2022/09/16 12:49:40;;;;;;;5.68;1.83;;;16.50;99.90;;;;;;5090002;28;20024;-79
2022/09/16 12:52:44;;;;;;;2.38;1.40;;;16.30;99.90;;;;;;5083597;28;20523;-77
2022/09/16 12:55:29;;;;;;;3.58;1.40;;;16.30;99.90;;;;;;5086260;28;20028;-78
2022/09/16 12:58:03;;;;;;;2.50;1.25;;;16.20;99.90;;;;;;5087815;28;20159;-80
2022/09/16 13:01:10;;;;;;;2.38;1.27;;;16.20;99.90;;;;;;5087186;28;20094;-79
2022/09/16 13:03:40;;;;;;;6.55;1.75;;;16.10;99.90;;;;;;5081576;28;20044;-79
2022/09/16 13:06:20;;;;;;;4.00;1.65;;;16.20;99.90;;;;;;5073506;28;20373;-75
2022/09/16 13:08:46;;;;;;;6.20;1.83;;;16.20;99.90;;;;;;5088548;28;20039;-77
2022/09/16 13:11:28;;;;;;;3.00;1.60;;;16.30;99.90;;;;;;5084833;28;20033;-77
2022/09/16 13:13:57;;;;;;;4.45;1.58;;;16.40;99.90;;;;;;5088897;28;20138;-76
2022/09/16 13:16:32;;;;;;;3.75;1.30;;;16.40;99.90;;;;;;5089118;28;20499;-78
2022/09/16 13:19:21;;;;;;;2.65;1.50;;;16.60;99.90;;;;;;5089425;28;20043;-76
2022/09/16 13:21:47;;;;;;;2.70;1.30;;;16.70;99.90;;;;;;5086245;28;20024;-77
2022/09/16 13:24:36;;;;;;;2.38;1.35;;;16.80;99.90;;;;;;5087514;28;20031;-76
2022/09/16 13:27:23;;;;;;;5.13;2.08;;;16.90;99.90;;;;;;5083495;28;20031;-73
2022/09/16 13:29:48;;;;;;;3.13;1.90;;;17.00;99.90;;;;;;5063148;28;20025;-77
2022/09/16 13:32:39;;;;;;;4.20;1.40;;;17.00;99.90;;;;;;5087766;28;20028;-77
2022/09/16 13:35:25;;;;;;;2.58;1.75;;;17.00;99.90;;;;;;5085353;28;20040;-76
2022/09/16 13:37:55;;;;;;;5.28;1.50;;;17.00;99.90;;;;;;5065174;28;20036;-77
2022/09/16 13:40:29;;;;;;;6.13;1.77;;;17.00;99.90;;;;;;5089633;28;20031;-75
2022/09/16 13:43:07;;;;;;;2.45;1.60;;;16.90;99.90;;;;;;5091191;28;20044;-76